Wetterdaten: aktuell Mittwoch, 18.09.2019 09:16
Datum Zeit Temp. A. Feuchte A. Luftdruck Regen Wind Richtung Richtung Taupunkt Windchill Windben Empfang
18.09.2019 09:16 11,1 C 70 % 1024,8 hPa 0,0 l/m 8,0 km/h (2 Bft) NW 308 5,8 C 10,0 C 12,9 km/h (3 Bft) 100 %
18.09.2019 09:14 11,1 C 71 % 1024,7 hPa 0,0 l/m 7,9 km/h (2 Bft) W-NW 295 6,0 C 10,1 C 11,3 km/h (2 Bft) 100 %
18.09.2019 09:12 11,1 C 72 % 1024,7 hPa 0,0 l/m 8,7 km/h (2 Bft) NW 307 6,2 C 9,6 C 14,5 km/h (3 Bft) 100 %
18.09.2019 09:10 11,0 C 73 % 1024,7 hPa 0,0 l/m 9,0 km/h (2 Bft) NW 321 6,4 C 9,3 C 11,3 km/h (2 Bft) 100 %
18.09.2019 09:08 10,9 C 72 % 1024,7 hPa 0,0 l/m 9,4 km/h (2 Bft) NW 319 6,1 C 8,9 C 12,9 km/h (3 Bft) 100 %
18.09.2019 09:06 10,8 C 75 % 1024,7 hPa 0,0 l/m 5,7 km/h (1 Bft) NW 314 6,5 C 10,8 C 9,7 km/h (2 Bft) 100 %
18.09.2019 09:04 10,7 C 73 % 1024,7 hPa 0,0 l/m 7,7 km/h (2 Bft) NW 324 6,1 C 9,8 C 9,7 km/h (2 Bft) 100 %
18.09.2019 09:02 10,6 C 72 % 1024,6 hPa 0,0 l/m 5,8 km/h (2 Bft) N-NW 340 5,8 C 10,6 C 9,7 km/h (2 Bft) 100 %
18.09.2019 09:00 10,5 C 77 % 1024,6 hPa 0,0 l/m 5,5 km/h (1 Bft) NW 314 6,6 C 10,5 C 8,0 km/h (2 Bft) 100 %
18.09.2019 08:58 10,3 C 77 % 1024,6 hPa 0,0 l/m 4,3 km/h (1 Bft) NW 326 6,4 C 10,3 C 4,8 km/h (1 Bft) 100 %
18.09.2019 08:56 10,1 C 78 % 1024,6 hPa 0,0 l/m 4,4 km/h (1 Bft) NW 318 6,4 C 10,1 C 6,4 km/h (2 Bft) 100 %
18.09.2019 08:54 9,9 C 80 % 1024,6 hPa 0,0 l/m 3,2 km/h (1 Bft) N 360 6,6 C 9,9 C 3,2 km/h (1 Bft) 99 %
18.09.2019 08:52 9,8 C 79 % 1024,4 hPa 0,0 l/m 3,6 km/h (1 Bft) N-NW 344 6,3 C 9,8 C 4,8 km/h (1 Bft) 99 %
18.09.2019 08:50 9,8 C 79 % 1024,5 hPa 0,0 l/m 1,3 km/h (1 Bft) N-NW 338 6,3 C 9,8 C 3,2 km/h (1 Bft) 100 %
18.09.2019 08:48 9,7 C 79 % 1024,5 hPa 0,0 l/m 1,7 km/h (1 Bft) N 9 6,2 C 9,7 C 3,2 km/h (1 Bft) 100 %
18.09.2019 08:46 9,7 C 79 % 1024,4 hPa 0,0 l/m 1,7 km/h (1 Bft) N 359 6,2 C 9,7 C 3,2 km/h (1 Bft) 100 %
18.09.2019 08:44 9,7 C 79 % 1024,4 hPa 0,0 l/m 1,3 km/h (1 Bft) N 356 6,2 C 9,7 C 3,2 km/h (1 Bft) 100 %
18.09.2019 08:42 9,7 C 79 % 1024,5 hPa 0,0 l/m 1,2 km/h (1 Bft) N-NW 336 6,2 C 9,7 C 1,6 km/h (1 Bft) 100 %
18.09.2019 08:40 9,6 C 79 % 1024,4 hPa 0,0 l/m 1,6 km/h (1 Bft) N-NW 335 6,1 C 9,6 C 3,2 km/h (1 Bft) 98 %
18.09.2019 08:38 9,7 C 79 % 1024,4 hPa 0,0 l/m 2,5 km/h (1 Bft) N-NO 33 6,2 C 9,7 C 3,2 km/h (1 Bft) 91 %
18.09.2019 08:36 9,7 C 77 % 1024,4 hPa 0,0 l/m 2,3 km/h (1 Bft) N-NO 33 5,9 C 9,7 C 3,2 km/h (1 Bft) 96 %
18.09.2019 08:34 9,6 C 76 % 1024,4 hPa 0,0 l/m 1,6 km/h (1 Bft) N 356 5,6 C 9,6 C 1,6 km/h (1 Bft) 100 %
18.09.2019 08:32 9,6 C 76 % 1024,3 hPa 0,0 l/m 0,7 km/h (0 Bft) N 1 5,6 C 9,6 C 1,6 km/h (1 Bft) 100 %
18.09.2019 08:30 9,4 C 77 % 1024,3 hPa 0,0 l/m 0,6 km/h (0 Bft) N 1 5,6 C 9,4 C 1,6 km/h (1 Bft) 100 %
18.09.2019 08:28 9,3 C 77 % 1024,3 hPa 0,0 l/m 0,0 km/h (0 Bft) N 1 5,5 C 9,3 C 0,0 km/h (0 Bft) 100 %
18.09.2019 08:26 9,3 C 78 % 1024,4 hPa 0,0 l/m 0,3 km/h (0 Bft) N 1 5,7 C 9,3 C 1,6 km/h (1 Bft) 100 %
18.09.2019 08:24 9,4 C 78 % 1024,4 hPa 0,0 l/m 1,4 km/h (1 Bft) N 1 5,8 C 9,4 C 1,6 km/h (1 Bft) 100 %
18.09.2019 08:22 9,4 C 77 % 1024,4 hPa 0,0 l/m 1,6 km/h (1 Bft) N 1 5,6 C 9,4 C 1,6 km/h (1 Bft) 100 %
18.09.2019 08:20 9,4 C 76 % 1024,4 hPa 0,0 l/m 1,6 km/h (1 Bft) N 353 5,4 C 9,4 C 3,2 km/h (1 Bft) 100 %
18.09.2019 08:18 9,4 C 75 % 1024,4 hPa 0,0 l/m 1,2 km/h (1 Bft) NW 309 5,2 C 9,4 C 3,2 km/h (1 Bft) 100 %
18.09.2019 08:16 9,6 C 76 % 1024,4 hPa 0,0 l/m 0,8 km/h (0 Bft) NW 323 5,6 C 9,6 C 1,6 km/h (1 Bft) 100 %
_ Min-Zeit 07:26 01:48 00:48 - 08:28 - - 08:04 04:42 08:28 07:40
Minimum _ 9,2 C 70 % 1019,6 hPa - 0,0 km/h (0 Bft) - - 5,0 C 5,3 C 0,0 km/h (0 Bft) 89 %
_ Max-Zeit 00:01 08:54 09:16 00:01 03:40 - - 00:12 02:10 00:28 00:01
Maximum _ 14,8 C 80 % 1024,8 hPa 0,0 l/m 19,7 km/h
NW (3 Bft)
- - 10,0 C 12,1 C 25,7 km/h
W (4 Bft)
100 %
Durchschnitt _ 11,7 C 74 % 1022,0 hPa #0,0 l/m 11,3 km/h (2 Bft) NW - 7,1 C 8,9 C 15,3 km/h (3 Bft) 100 %